Time;durP1;ratioP1;P1;durP2;ratioP2;P2;SDS_P1;SDS_P2;PMS_P1;PMS_P2;Temp;Humidity;BMP_temperature;BMP_pressure;BME280_temperature;BME280_humidity;BME280_pressure;Samples;Min_cycle;Max_cycle;Signal;HPM_P1;HPM_P2
2022/07/07 00:00:29;;;;;;;6.55;3.47;;;;;;;19.05;61.55;93946.97;5124342;28;20321;-90
2022/07/07 00:02:54;;;;;;;4.50;3.75;;;;;;;19.05;61.64;93955.06;5124657;28;20019;-88
2022/07/07 00:05:20;;;;;;;5.13;4.18;;;;;;;19.06;61.90;93956.63;5124615;28;20016;-89
2022/07/07 00:07:46;;;;;;;5.32;4.13;;;;;;;18.98;61.64;93944.94;5106284;28;20247;-88
2022/07/07 00:10:11;;;;;;;5.78;3.20;;;;;;;18.92;62.16;93949.09;5125104;28;20023;-95
2022/07/07 00:12:37;;;;;;;5.82;3.38;;;;;;;18.93;61.77;93952.56;5126541;28;20225;-95
2022/07/07 00:15:06;;;;;;;9.32;4.07;;;;;;;18.91;61.75;93957.53;5108225;28;20068;-96
2022/07/07 00:17:31;;;;;;;9.23;3.47;;;;;;;18.86;61.24;93960.56;5107994;28;20051;-96
2022/07/07 00:19:57;;;;;;;5.00;3.53;;;;;;;18.86;61.11;93947.84;5125988;28;20031;-96
2022/07/07 00:22:22;;;;;;;7.28;3.88;;;;;;;18.87;61.33;93952.09;5125978;28;20028;-95
2022/07/07 00:24:48;;;;;;;5.22;3.45;;;;;;;18.84;61.17;93950.13;5128639;28;20027;-95
2022/07/07 00:27:13;;;;;;;6.05;3.85;;;;;;;18.88;61.52;93948.25;5128199;28;20090;-96
2022/07/07 00:29:39;;;;;;;5.60;3.83;;;;;;;18.88;60.55;93944.78;5126187;28;20020;-95
2022/07/07 00:32:05;;;;;;;5.80;3.50;;;;;;;18.82;60.41;93949.69;5124972;28;20094;-94
2022/07/07 00:34:30;;;;;;;8.60;3.53;;;;;;;18.86;60.31;93958.63;5124769;28;20043;-94
2022/07/07 00:36:55;;;;;;;4.45;3.25;;;;;;;18.84;60.27;93969.03;5106923;28;20115;-94
2022/07/07 00:39:21;;;;;;;7.63;3.35;;;;;;;18.78;60.78;93956.94;5107936;28;20089;-93
2022/07/07 00:41:46;;;;;;;7.75;4.15;;;;;;;18.74;60.35;93966.91;5128708;28;20067;-95
2022/07/07 00:44:13;;;;;;;6.22;3.70;;;;;;;18.69;60.25;93951.81;5106846;28;20027;-94
2022/07/07 00:46:44;;;;;;;4.60;3.05;;;;;;;18.75;60.19;93954.97;5124501;28;20301;-91
2022/07/07 00:49:11;;;;;;;11.88;3.10;;;;;;;18.75;60.09;93960.38;5124223;28;20069;-91
2022/07/07 00:51:38;;;;;;;5.25;3.00;;;;;;;18.74;59.95;93964.19;5124327;28;20011;-92
2022/07/07 00:54:03;;;;;;;4.68;3.30;;;;;;;18.69;60.09;93954.50;5106118;28;20020;-94
2022/07/07 00:56:29;;;;;;;3.95;2.50;;;;;;;18.72;59.86;93961.09;5105771;28;20023;-90
2022/07/07 00:58:54;;;;;;;3.78;2.78;;;;;;;18.73;59.73;93960.72;5123980;28;20034;-90
2022/07/07 01:01:20;;;;;;;3.95;2.90;;;;;;;18.72;59.25;93958.38;5126786;28;20210;-90
2022/07/07 01:03:45;;;;;;;4.35;2.50;;;;;;;18.59;59.34;93955.88;5127823;28;20019;-89
2022/07/07 01:06:11;;;;;;;5.25;2.92;;;;;;;18.61;59.70;93964.41;5127542;28;20337;-90
2022/07/07 01:08:37;;;;;;;5.00;2.58;;;;;;;18.57;58.96;93952.75;5126824;28;20031;-90
2022/07/07 01:11:03;;;;;;;4.80;2.53;;;;;;;18.52;59.28;93966.56;5128262;28;20034;-90
2022/07/07 01:13:28;;;;;;;4.15;2.95;;;;;;;18.52;59.75;93961.19;5109880;28;20237;-90
2022/07/07 01:15:53;;;;;;;3.55;2.50;;;;;;;18.52;59.46;93955.78;5127819;28;20020;-90
2022/07/07 01:18:19;;;;;;;6.38;2.88;;;;;;;18.46;59.40;93965.31;5127958;28;20325;-90
2022/07/07 01:20:47;;;;;;;3.90;2.67;;;;;;;18.47;59.25;93968.78;5109638;28;20088;-90
2022/07/07 01:23:13;;;;;;;7.70;2.50;;;;;;;18.47;59.54;93964.16;5127331;28;20023;-86
2022/07/07 01:25:39;;;;;;;3.58;2.38;;;;;;;18.44;58.98;93970.28;5128083;28;20024;-91
2022/07/07 01:28:04;;;;;;;4.53;2.67;;;;;;;18.40;58.95;93959.44;5127903;28;20027;-92
2022/07/07 01:30:30;;;;;;;5.25;2.65;;;;;;;18.38;59.13;93964.41;5127909;28;20019;-92
2022/07/07 01:32:55;;;;;;;3.80;2.58;;;;;;;18.39;59.00;93967.88;5130365;28;20048;-90
2022/07/07 01:35:21;;;;;;;4.13;2.10;;;;;;;18.37;58.79;93972.84;5137336;28;20019;-90
2022/07/07 01:37:46;;;;;;;8.82;2.53;;;;;;;18.38;58.58;93961.72;5135583;28;20023;-90
2022/07/07 01:40:12;;;;;;;11.20;2.65;;;;;;;18.39;58.21;93960.56;5133670;28;20020;-90
2022/07/07 01:42:37;;;;;;;5.35;2.00;;;;;;;18.39;57.87;93973.28;5129489;28;20055;-90
2022/07/07 01:45:03;;;;;;;3.47;2.25;;;;;;;18.31;58.22;93955.41;5129252;28;20321;-90
2022/07/07 01:47:29;;;;;;;4.32;3.08;;;;;;;18.33;58.09;93956.59;5128502;28;20053;-91
2022/07/07 01:49:54;;;;;;;3.67;2.40;;;;;;;18.35;57.98;93956.25;5128108;28;20050;-91
2022/07/07 01:52:19;;;;;;;5.10;1.90;;;;;;;18.31;57.95;93961.56;5127346;28;20319;-91
2022/07/07 01:54:46;;;;;;;5.82;2.10;;;;;;;18.31;57.87;93958.09;5127531;28;20011;-92
2022/07/07 01:57:12;;;;;;;4.05;1.83;;;;;;;18.30;57.78;93956.53;5127056;28;20296;-90
2022/07/07 01:59:38;;;;;;;7.93;1.88;;;;;;;18.22;57.43;93947.56;5127204;28;20019;-86
2022/07/07 02:02:04;;;;;;;4.85;1.90;;;;;;;18.16;57.68;93960.56;5127207;28;20047;-90
2022/07/07 02:04:29;;;;;;;4.25;1.90;;;;;;;18.25;57.43;93952.22;5126816;28;20369;-90
2022/07/07 02:06:55;;;;;;;3.15;1.85;;;;;;;18.19;57.63;93970.63;5127115;28;20332;-89
2022/07/07 02:09:21;;;;;;;3.80;1.90;;;;;;;18.17;57.50;93945.16;5126286;28;20362;-88
2022/07/07 02:11:46;;;;;;;3.25;2.08;;;;;;;18.21;57.29;93957.53;5125611;28;20024;-88
2022/07/07 02:14:12;;;;;;;2.33;1.70;;;;;;;18.14;57.74;93953.97;5126430;28;20321;-90
2022/07/07 02:16:37;;;;;;;2.35;1.60;;;;;;;18.19;57.24;93959.06;5126392;28;20019;-89
2022/07/07 02:19:05;;;;;;;2.58;1.83;;;;;;;18.13;57.20;93945.06;5126431;28;20024;-89
2022/07/07 02:21:31;;;;;;;3.85;1.77;;;;;;;18.16;57.24;93955.16;5126320;28;20363;-88
2022/07/07 02:23:57;;;;;;;3.08;1.95;;;;;;;18.12;57.46;93953.56;5108299;28;20020;-87
2022/07/07 02:26:23;;;;;;;4.95;1.80;;;;;;;18.11;57.33;93952.75;5126767;28;20039;-90
2022/07/07 02:28:49;;;;;;;7.32;2.15;;;;;;;18.11;57.21;93957.38;5126834;28;20318;-90
2022/07/07 02:31:15;;;;;;;2.33;1.70;;;;;;;18.12;57.14;93948.94;5126665;28;20019;-89
2022/07/07 02:33:41;;;;;;;2.22;1.50;;;;;;;18.05;57.37;93954.19;5126270;28;20335;-88
2022/07/07 02:36:08;;;;;;;2.85;1.60;;;;;;;18.08;57.26;93961.56;5126393;28;20028;-89
2022/07/07 02:38:36;;;;;;;7.65;1.98;;;;;;;18.05;57.62;93970.34;5126274;28;20372;-90
2022/07/07 02:41:02;;;;;;;4.13;1.65;;;;;;;18.02;57.38;93957.59;5126076;28;20034;-90
2022/07/07 02:43:27;;;;;;;3.78;1.83;;;;;;;18.00;57.19;93957.97;5126116;28;20284;-90
2022/07/07 02:45:53;;;;;;;4.82;1.67;;;;;;;18.07;57.01;93959.22;5108023;28;20019;-90
2022/07/07 02:48:21;;;;;;;4.43;1.50;;;;;;;18.05;57.26;93964.97;5126091;28;20253;-89
2022/07/07 02:50:47;;;;;;;2.85;1.42;;;;;;;18.03;56.94;93961.84;5108045;28;20028;-89
2022/07/07 02:53:13;;;;;;;5.60;1.70;;;;;;;18.01;57.13;93959.53;5126004;28;20065;-89
2022/07/07 02:55:39;;;;;;;2.40;1.50;;;;;;;18.01;56.80;93958.72;5125880;28;20086;-88
2022/07/07 02:58:06;;;;;;;4.82;1.63;;;;;;;17.97;57.03;93963.28;5125868;28;20361;-90
2022/07/07 03:00:33;;;;;;;3.03;1.65;;;;;;;18.04;56.93;93960.72;5107897;28;20037;-90
2022/07/07 03:03:00;;;;;;;2.20;1.60;;;;;;;18.01;56.71;93964.91;5125666;28;20024;-85
2022/07/07 03:05:25;;;;;;;2.53;1.63;;;;;;;18.00;56.84;93960.66;5125786;28;20035;-90
2022/07/07 03:07:51;;;;;;;3.05;1.48;;;;;;;18.02;56.60;93965.69;5125735;28;20133;-88
2022/07/07 03:10:16;;;;;;;2.15;1.38;;;;;;;18.01;56.68;93970.31;5125770;28;20023;-90
2022/07/07 03:12:42;;;;;;;4.43;1.60;;;;;;;18.00;56.52;93967.97;5107631;28;20202;-90
2022/07/07 03:15:08;;;;;;;3.83;1.90;;;;;;;18.00;56.32;93970.66;5125296;28;20043;-89
2022/07/07 03:17:35;;;;;;;11.73;2.03;;;;;;;18.04;56.63;93964.19;5125326;28;20093;-90
2022/07/07 03:20:01;;;;;;;3.92;1.88;;;;;;;18.06;56.30;93974.63;5125611;28;20039;-91
2022/07/07 03:22:27;;;;;;;2.97;1.65;;;;;;;18.05;55.96;93964.97;5107831;28;20335;-90
2022/07/07 03:24:52;;;;;;;2.83;1.58;;;;;;;18.06;56.78;93958.44;5123909;28;20072;-71
2022/07/07 03:27:18;;;;;;;6.13;1.55;;;;;;;18.19;57.09;93965.22;5124034;28;20016;-71
2022/07/07 03:29:43;;;;;;;2.08;1.52;;;;;;;18.32;58.24;93965.03;5124138;28;20015;-71
2022/07/07 03:32:09;;;;;;;3.20;1.70;;;;;;;18.36;56.13;93972.09;5123764;28;20034;-71
2022/07/07 03:34:35;;;;;;;3.67;1.95;;;;;;;18.47;57.40;93971.50;5123994;28;20022;-71
2022/07/07 03:37:00;;;;;;;3.85;1.50;;;;;;;18.47;55.75;93974.97;5123583;28;20240;-70
2022/07/07 03:39:26;;;;;;;4.63;1.52;;;;;;;18.53;56.21;93970.81;5124278;28;20179;-70
2022/07/07 03:41:51;;;;;;;4.72;1.75;;;;;;;18.52;55.79;93969.28;5123584;28;20042;-70
2022/07/07 03:44:17;;;;;;;4.07;1.52;;;;;;;18.55;55.03;93965.06;5123583;28;20068;-70
2022/07/07 03:46:42;;;;;;;4.07;1.60;;;;;;;18.62;54.66;93979.47;5123610;28;20171;-71
2022/07/07 03:49:07;;;;;;;3.35;1.73;;;;;;;18.68;55.29;93973.75;5123698;28;20094;-70
2022/07/07 03:51:33;;;;;;;4.15;1.83;;;;;;;18.71;55.33;93976.50;5123500;28;20374;-71
2022/07/07 03:53:58;;;;;;;4.22;1.83;;;;;;;18.67;54.67;93978.38;5123661;28;20360;-71
2022/07/07 03:56:24;;;;;;;2.25;1.38;;;;;;;18.68;55.18;93979.91;5123580;28;20030;-71
2022/07/07 03:58:49;;;;;;;4.57;1.65;;;;;;;18.63;55.09;93982.94;5123427;28;20031;-71
2022/07/07 04:01:15;;;;;;;2.15;1.35;;;;;;;18.61;55.41;93985.22;5123396;28;20042;-71
2022/07/07 04:03:40;;;;;;;5.35;1.70;;;;;;;18.63;55.60;93978.31;5123469;28;20385;-71
2022/07/07 04:06:06;;;;;;;5.15;1.60;;;;;;;18.65;55.41;93980.66;5123417;28;20043;-71
2022/07/07 04:08:32;;;;;;;2.63;1.45;;;;;;;18.62;54.68;93982.16;5123091;28;20309;-71
2022/07/07 04:10:58;;;;;;;2.35;1.38;;;;;;;18.63;55.44;93982.94;5123424;28;20107;-71
2022/07/07 04:13:23;;;;;;;3.67;1.52;;;;;;;18.62;54.48;93976.78;5123256;28;20039;-71
2022/07/07 04:15:49;;;;;;;2.88;1.60;;;;;;;18.65;54.50;93981.44;5123076;28;20236;-72
2022/07/07 04:18:14;;;;;;;6.10;1.80;;;;;;;18.72;54.34;93986.16;5123254;28;20090;-73
2022/07/07 04:20:40;;;;;;;2.20;1.30;;;;;;;18.79;53.83;93991.72;5122834;28;20027;-74
2022/07/07 04:23:05;;;;;;;4.40;1.20;;;;;;;18.91;53.93;93988.03;5122988;28;20088;-72
2022/07/07 04:25:31;;;;;;;3.38;1.30;;;;;;;18.93;53.56;93984.97;5123187;28;20034;-72
2022/07/07 04:27:56;;;;;;;2.22;1.42;;;;;;;18.96;53.94;93987.72;5123419;28;20035;-73
2022/07/07 04:30:21;;;;;;;3.45;1.38;;;;;;;19.06;52.77;93990.97;5123222;28;20179;-73
2022/07/07 04:32:47;;;;;;;3.20;1.85;;;;;;;19.04;53.10;93992.09;5123038;28;20027;-74
2022/07/07 04:35:12;;;;;;;3.42;2.13;;;;;;;19.09;53.17;93987.50;5122780;28;20064;-74
2022/07/07 04:37:38;;;;;;;2.28;1.50;;;;;;;19.07;52.75;93989.81;5123023;28;20373;-74
2022/07/07 04:40:04;;;;;;;4.57;1.50;;;;;;;18.90;52.32;93994.56;5122904;28;20031;-72
2022/07/07 04:42:30;;;;;;;2.20;1.30;;;;;;;18.93;53.44;93991.16;5123217;28;20054;-72
2022/07/07 04:44:55;;;;;;;3.35;1.73;;;;;;;18.95;53.36;93993.47;5123322;28;20024;-73
2022/07/07 04:47:21;;;;;;;7.97;1.85;;;;;;;18.99;53.73;93989.72;5123136;28;20023;-73
2022/07/07 04:49:47;;;;;;;2.38;1.42;;;;;;;19.01;54.34;93989.31;5123263;28;20051;-72
2022/07/07 04:52:12;;;;;;;6.28;1.42;;;;;;;19.07;53.52;93989.81;5123122;28;20031;-71
2022/07/07 04:54:38;;;;;;;2.97;1.60;;;;;;;19.20;52.97;93991.16;5123064;28;20030;-72
2022/07/07 04:57:03;;;;;;;6.28;1.58;;;;;;;19.15;52.79;93986.06;5122977;28;20020;-76
2022/07/07 04:59:29;;;;;;;2.58;1.58;;;;;;;19.10;52.93;93992.56;5123196;28;20240;-77
2022/07/07 05:01:54;;;;;;;3.53;1.85;;;;;;;19.16;54.09;94003.84;5123330;28;20015;-78
2022/07/07 05:04:20;;;;;;;2.00;1.30;;;;;;;19.16;52.60;93987.63;5122561;28;20019;-74
2022/07/07 05:06:45;;;;;;;4.53;2.00;;;;;;;19.12;52.40;93984.88;5122803;28;20022;-74
2022/07/07 05:09:11;;;;;;;2.38;1.35;;;;;;;19.19;53.01;93992.28;5123140;28;20058;-76
2022/07/07 05:11:37;;;;;;;2.08;1.27;;;;;;;19.26;53.90;93983.53;5122680;28;20268;-72
2022/07/07 05:14:02;;;;;;;2.85;1.80;;;;;;;19.41;53.50;93983.34;5122607;28;20027;-71
2022/07/07 05:16:29;;;;;;;3.97;1.45;;;;;;;19.52;53.09;93988.91;5122763;28;20069;-71
2022/07/07 05:18:55;;;;;;;2.35;1.38;;;;;;;19.52;53.03;93982.69;5122830;28;20015;-68
2022/07/07 05:21:20;;;;;;;3.58;1.60;;;;;;;19.58;52.88;93987.44;5122610;28;20020;-69
2022/07/07 05:23:45;;;;;;;5.45;1.45;;;;;;;19.62;52.03;93973.94;5122533;28;20191;-70
2022/07/07 05:26:12;;;;;;;4.70;2.28;;;;;;;19.63;51.45;93978.22;5122296;28;20012;-74
2022/07/07 05:28:41;;;;;;;3.72;1.65;;;;;;;19.69;51.86;93979.44;5122189;28;20019;-70
2022/07/07 05:31:12;;;;;;;3.10;1.42;;;;;;;19.79;51.25;93983.47;5122653;28;20060;-67
2022/07/07 05:33:37;;;;;;;3.80;1.58;;;;;;;19.86;50.93;93986.25;5122536;28;20255;-65
2022/07/07 05:36:04;;;;;;;3.35;1.63;;;;;;;19.87;52.32;93993.22;5122380;28;20015;-65
2022/07/07 05:38:30;;;;;;;5.78;1.70;;;;;;;19.82;51.50;93986.22;5122546;28;20047;-65
2022/07/07 05:40:55;;;;;;;2.92;1.52;;;;;;;19.91;51.29;93982.44;5122473;28;20061;-69
2022/07/07 05:43:21;;;;;;;5.97;1.58;;;;;;;20.03;52.23;93985.69;5121852;28;20039;-70
2022/07/07 05:45:46;;;;;;;2.22;1.35;;;;;;;20.13;52.43;93999.69;5122515;28;20067;-70
2022/07/07 05:48:12;;;;;;;4.68;1.83;;;;;;;20.01;51.76;93995.31;5124571;28;20095;-74
2022/07/07 05:50:37;;;;;;;3.78;1.40;;;;;;;19.96;50.79;93998.34;5126359;28;20030;-80
2022/07/07 05:53:03;;;;;;;4.60;1.80;;;;;;;19.96;50.79;94007.22;5126418;28;20043;-79
2022/07/07 05:55:29;;;;;;;4.22;1.75;;;;;;;19.99;51.53;93992.22;5126359;28;20023;-77
2022/07/07 05:57:54;;;;;;;5.22;2.00;;;;;;;20.07;51.31;93993.84;5125982;28;20373;-77
2022/07/07 06:00:20;;;;;;;7.82;1.45;;;;;;;20.06;50.94;94000.38;5125888;28;20047;-77
2022/07/07 06:02:45;;;;;;;5.95;2.85;;;;;;;20.01;51.34;93998.03;5126046;28;20034;-80
2022/07/07 06:05:11;;;;;;;2.25;1.30;;;;;;;20.12;50.37;94004.31;5125963;28;20047;-78
2022/07/07 06:07:37;;;;;;;6.00;1.95;;;;;;;19.95;51.24;94002.22;5125960;28;20054;-77
2022/07/07 06:10:07;;;;;;;7.60;1.80;;;;;;;20.04;51.61;94013.50;5125658;28;20043;-74
2022/07/07 06:12:32;;;;;;;14.05;2.00;;;;;;;20.10;51.27;94003.91;5125575;28;20091;-74
2022/07/07 06:14:58;;;;;;;7.68;1.67;;;;;;;20.04;51.83;94014.28;5124227;28;20279;-74
2022/07/07 06:17:23;;;;;;;2.72;1.63;;;;;;;20.03;52.49;94014.66;5123090;28;20027;-75
2022/07/07 06:19:48;;;;;;;4.07;2.63;;;;;;;20.10;51.12;94017.44;5123753;28;20362;-73
2022/07/07 06:22:14;;;;;;;5.93;1.90;;;;;;;20.22;51.50;94021.81;5124757;28;20027;-79
2022/07/07 06:24:41;;;;;;;4.22;1.70;;;;;;;20.24;49.89;94020.31;5125395;28;20129;-80
2022/07/07 06:27:07;;;;;;;3.72;1.88;;;;;;;20.19;50.22;94028.75;5125237;28;20029;-81
2022/07/07 06:29:32;;;;;;;6.20;2.00;;;;;;;20.25;51.30;94015.66;5125921;28;20023;-90
2022/07/07 06:31:57;;;;;;;5.25;1.38;;;;;;;20.29;51.07;94021.88;5125613;28;20251;-90
2022/07/07 06:34:23;;;;;;;4.30;2.15;;;;;;;20.23;50.96;94021.47;5125647;28;20019;-90
2022/07/07 06:36:48;;;;;;;4.78;1.40;;;;;;;20.22;50.29;94033.41;5125914;28;20012;-91
2022/07/07 06:39:14;;;;;;;5.10;2.00;;;;;;;20.19;50.53;94027.97;5127236;28;20309;-91
2022/07/07 06:41:39;;;;;;;2.90;1.55;;;;;;;20.22;51.88;94019.88;5108550;28;20226;-92
2022/07/07 06:44:06;;;;;;;3.60;1.40;;;;;;;20.15;51.21;94025.25;5125067;28;20019;-92
2022/07/07 06:46:32;;;;;;;3.08;1.90;;;;;;;20.23;51.82;94020.66;5125081;28;20076;-93
2022/07/07 06:48:58;;;;;;;4.82;1.90;;;;;;;20.22;51.57;94019.13;5125146;28;20024;-92
2022/07/07 06:51:24;;;;;;;5.53;1.58;;;;;;;20.32;50.83;94012.28;5108711;28;20016;-95
2022/07/07 06:53:50;;;;;;;4.07;1.63;;;;;;;20.26;52.07;94030.00;5134320;28;20385;-95
2022/07/07 06:56:15;;;;;;;6.72;1.88;;;;;;;20.22;51.71;94025.31;5134324;28;20146;-96
2022/07/07 06:58:41;;;;;;;4.97;1.63;;;;;;;20.23;50.45;94024.16;5129469;28;20019;-95
2022/07/07 07:01:06;;;;;;;5.10;1.85;;;;;;;20.16;51.70;94021.38;5131645;28;20092;-94
2022/07/07 07:03:32;;;;;;;3.05;1.95;;;;;;;20.26;51.85;94024.59;5128962;28;20341;-95
2022/07/07 07:05:57;;;;;;;3.80;2.03;;;;;;;20.37;52.66;94028.16;5127773;28;20023;-94
2022/07/07 07:08:24;;;;;;;5.88;2.92;;;;;;;20.49;50.39;94027.13;5129179;28;20259;-95
2022/07/07 07:10:51;;;;;;;3.22;1.90;;;;;;;20.38;50.43;94021.63;5137499;28;20024;-95
2022/07/07 07:13:17;;;;;;;2.83;1.42;;;;;;;20.50;49.86;94023.28;5139249;28;20053;-95
2022/07/07 07:15:44;;;;;;;4.10;1.63;;;;;;;20.50;49.51;94032.19;5135647;28;20035;-94
2022/07/07 07:18:10;;;;;;;2.53;1.60;;;;;;;20.45;50.75;94024.38;5131687;28;20162;-95
2022/07/07 07:20:35;;;;;;;8.50;2.33;;;;;;;20.52;50.51;94018.28;5126954;28;20052;-95
2022/07/07 07:23:01;;;;;;;3.97;1.70;;;;;;;20.60;49.99;94020.69;5127113;28;20019;-95
2022/07/07 07:25:26;;;;;;;4.07;1.73;;;;;;;20.70;51.31;94029.28;5127257;28;20027;-95
2022/07/07 07:27:52;;;;;;;3.03;1.67;;;;;;;20.81;48.16;94013.91;5126370;28;20023;-94
2022/07/07 07:30:17;;;;;;;2.40;1.50;;;;;;;20.90;50.30;94019.78;5108839;28;20322;-94
2022/07/07 07:32:43;;;;;;;7.65;1.67;;;;;;;20.81;50.64;94028.22;5125864;28;20019;-95
2022/07/07 07:35:10;;;;;;;4.68;2.05;;;;;;;20.84;50.58;94016.66;5125767;28;20329;-94
2022/07/07 07:37:38;;;;;;;3.00;1.80;;;;;;;20.91;50.12;94021.34;5125439;28;20047;-92
2022/07/07 07:40:09;;;;;;;4.55;1.83;;;;;;;20.99;49.21;94012.13;5125426;28;20024;-91
2022/07/07 07:42:36;;;;;;;5.32;2.40;;;;;;;21.04;49.18;94009.09;5106611;28;20083;-90
2022/07/07 07:45:14;;;;;;;6.13;1.90;;;;;;;21.16;48.85;94021.53;5125103;28;20023;-89
2022/07/07 07:47:46;;;;;;;4.20;2.00;;;;;;;21.17;48.33;94017.69;5125337;28;20087;-95
2022/07/07 07:50:14;;;;;;;4.13;1.85;;;;;;;21.35;47.65;94017.81;5125675;28;20016;-93
2022/07/07 07:52:41;;;;;;;2.85;1.50;;;;;;;21.40;48.65;94016.66;5125136;28;20016;-91
2022/07/07 07:55:09;;;;;;;4.22;1.55;;;;;;;21.47;47.77;94015.97;5124894;28;20026;-91
2022/07/07 07:57:36;;;;;;;7.28;1.80;;;;;;;21.48;46.83;94018.31;5124647;28;20026;-90
2022/07/07 08:00:06;;;;;;;5.70;1.48;;;;;;;21.54;45.71;94024.16;5125085;28;20306;-92
2022/07/07 08:02:32;;;;;;;2.75;1.40;;;;;;;21.52;47.07;94026.47;5124905;28;20041;-93
2022/07/07 08:04:57;;;;;;;2.22;1.38;;;;;;;21.68;44.82;94026.16;5124818;28;20047;-92
2022/07/07 08:07:23;;;;;;;6.63;1.92;;;;;;;21.71;47.08;94023.44;5124688;28;20300;-88
2022/07/07 08:09:48;;;;;;;10.18;1.73;;;;;;;21.77;45.52;94023.88;5124104;28;20090;-89
2022/07/07 08:12:14;;;;;;;3.78;1.90;;;;;;;21.71;46.50;94020.75;5124547;28;20040;-90
2022/07/07 08:14:39;;;;;;;1.60;1.00;;;;;;;21.73;45.91;94021.13;5124706;28;20027;-91
2022/07/07 08:17:05;;;;;;;6.00;1.30;;;;;;;21.70;45.49;94011.06;5124775;28;20023;-89
2022/07/07 08:19:30;;;;;;;2.30;1.10;;;;;;;21.74;45.78;94027.38;5124544;28;20020;-90
2022/07/07 08:21:56;;;;;;;2.50;1.40;;;;;;;21.81;46.37;94025.44;5124532;28;20313;-91
2022/07/07 08:24:21;;;;;;;2.67;1.80;;;;;;;21.97;45.42;94032.50;5106506;28;20016;-92
2022/07/07 08:26:48;;;;;;;3.95;1.70;;;;;;;21.98;45.88;94026.69;5124417;28;20337;-91
2022/07/07 08:29:14;;;;;;;4.60;1.70;;;;;;;22.11;44.66;94020.94;5124418;28;20035;-90
2022/07/07 08:31:40;;;;;;;4.72;1.73;;;;;;;22.24;45.52;94020.22;5124594;28;20046;-91
2022/07/07 08:34:07;;;;;;;2.50;1.40;;;;;;;22.20;46.09;94027.53;5106420;28;20016;-92
2022/07/07 08:36:33;;;;;;;5.97;1.30;;;;;;;22.11;45.81;94027.13;5124577;28;20129;-92
2022/07/07 08:38:58;;;;;;;16.00;1.73;;;;;;;22.20;47.10;94022.09;5106466;28;20019;-92
2022/07/07 08:41:25;;;;;;;2.53;1.70;;;;;;;22.39;47.79;94031.13;5124876;28;20221;-91
2022/07/07 08:43:50;;;;;;;4.53;1.67;;;;;;;22.50;45.79;94028.44;5107180;28;20043;-90
2022/07/07 08:46:16;;;;;;;2.33;1.50;;;;;;;22.51;46.77;94025.34;5124983;28;20046;-91
2022/07/07 08:48:42;;;;;;;2.97;1.75;;;;;;;22.58;45.50;94038.16;5125129;28;20015;-93
2022/07/07 08:51:08;;;;;;;5.63;1.40;;;;;;;22.49;44.69;94033.09;5124514;28;20039;-92
2022/07/07 08:53:37;;;;;;;2.20;1.50;;;;;;;22.38;44.33;94032.28;5124369;28;20335;-92
2022/07/07 08:56:07;;;;;;;9.20;2.22;;;;;;;22.44;46.18;94025.31;5124336;28;20019;-94
2022/07/07 08:58:35;;;;;;;5.15;1.67;;;;;;;22.44;43.75;94026.09;5124351;28;20022;-94
2022/07/07 09:01:06;;;;;;;9.57;1.75;;;;;;;22.49;43.93;94030.38;5123963;28;20019;-92
2022/07/07 09:03:31;;;;;;;3.70;1.88;;;;;;;22.59;42.91;94015.25;5124592;28;20141;-91
2022/07/07 09:05:58;;;;;;;3.53;1.92;;;;;;;22.68;44.96;94018.38;5124440;28;20024;-91
2022/07/07 09:08:25;;;;;;;4.68;1.65;;;;;;;22.76;43.90;94009.06;5124010;28;20047;-93
2022/07/07 09:10:51;;;;;;;11.55;1.83;;;;;;;22.77;42.83;94021.47;5124083;28;20074;-92
2022/07/07 09:13:29;;;;;;;6.50;1.90;;;;;;;22.84;43.76;94020.72;5124049;28;20023;-93
2022/07/07 09:16:01;;;;;;;5.13;1.80;;;;;;;22.99;43.11;94016.84;5123790;28;20091;-92
2022/07/07 09:18:36;;;;;;;3.60;1.77;;;;;;;22.99;43.54;94030.41;5124003;28;20034;-92
2022/07/07 09:21:04;;;;;;;3.55;1.88;;;;;;;23.02;42.49;94013.38;5105952;28;20035;-91
2022/07/07 09:23:30;;;;;;;9.05;1.80;;;;;;;23.12;42.56;94024.63;5126789;28;20023;-91
2022/07/07 09:25:55;;;;;;;9.07;2.03;;;;;;;23.24;44.49;94016.06;5127660;28;20057;-91
2022/07/07 09:28:21;;;;;;;2.03;1.40;;;;;;;23.39;44.31;94009.47;5127813;28;20027;-92
2022/07/07 09:30:47;;;;;;;2.70;1.55;;;;;;;23.38;43.28;94009.84;5109704;28;20221;-90
2022/07/07 09:33:15;;;;;;;2.38;1.58;;;;;;;23.36;43.97;94021.09;5128151;28;20090;-91
2022/07/07 09:38:30;;;;;;;3.75;1.45;;;;;;;23.44;41.70;94003.59;5127954;28;20019;-90
2022/07/07 09:41:12;;;;;;;4.70;1.42;;;;;;;23.41;44.24;94012.56;5110012;28;20224;-90
2022/07/07 09:43:44;;;;;;;3.13;1.88;;;;;;;23.60;44.62;94010.59;5127812;28;20144;-91
2022/07/07 09:46:18;;;;;;;2.47;1.50;;;;;;;23.74;42.74;94010.56;5109583;28;20086;-90
2022/07/07 09:48:51;;;;;;;3.70;1.70;;;;;;;23.73;41.93;94009.00;5127912;28;20095;-91
2022/07/07 09:51:24;;;;;;;4.75;1.50;;;;;;;23.80;43.78;94010.97;5127679;28;20019;-91
2022/07/07 09:54:06;;;;;;;3.03;1.60;;;;;;;23.70;44.62;94020.66;5127541;28;20019;-90
2022/07/07 09:56:33;;;;;;;;;;;;;;;23.70;43.74;94012.50;5128862;28;20024;-91
2022/07/07 09:59:00;;;;;;;2.75;1.48;;;;;;;23.65;43.82;94015.63;5128051;28;19941;-90
2022/07/07 10:01:29;;;;;;;3.30;1.90;;;;;;;23.88;43.32;94007.03;5128772;28;20510;-90
2022/07/07 10:04:01;;;;;;;2.83;1.52;;;;;;;24.02;42.34;94006.97;5128453;28;20313;-90
2022/07/07 10:06:29;;;;;;;2.33;1.55;;;;;;;24.12;41.09;94005.41;5127746;28;20024;-89
2022/07/07 10:09:05;;;;;;;2.95;1.40;;;;;;;24.26;41.01;94012.69;5127819;28;20028;-89
2022/07/07 10:11:41;;;;;;;5.50;1.55;;;;;;;24.39;42.09;94018.50;5127711;28;20089;-90
2022/07/07 10:14:10;;;;;;;9.70;2.20;;;;;;;24.41;42.46;94008.75;5127861;28;20064;-89
2022/07/07 10:16:36;;;;;;;4.45;1.50;;;;;;;24.31;42.08;94001.41;5127784;28;20221;-90
2022/07/07 10:19:02;;;;;;;3.50;1.77;;;;;;;24.39;41.75;93993.97;5127777;28;20031;-89
2022/07/07 10:21:28;;;;;;;2.97;1.55;;;;;;;24.56;39.56;93992.34;5127580;28;20037;-89
2022/07/07 10:23:54;;;;;;;4.50;1.50;;;;;;;24.67;38.93;93982.16;5128151;28;20405;-90
2022/07/07 10:26:34;;;;;;;2.88;1.70;;;;;;;24.75;39.81;93988.31;5127882;28;20080;-92
2022/07/07 10:29:00;;;;;;;7.25;1.92;;;;;;;24.83;40.38;94000.69;5127413;28;20325;-92
2022/07/07 10:31:28;;;;;;;3.88;1.55;;;;;;;24.64;39.03;93993.84;5127017;28;20073;-92
2022/07/07 10:34:08;;;;;;;2.92;1.50;;;;;;;24.40;40.62;94000.97;5126059;28;20223;-92
2022/07/07 10:36:46;;;;;;;12.18;2.40;;;;;;;24.34;40.71;93987.00;5126616;28;20344;-92
2022/07/07 10:39:16;;;;;;;3.83;1.70;;;;;;;24.44;40.15;93985.38;5126581;28;20191;-92
2022/07/07 10:41:54;;;;;;;3.75;1.73;;;;;;;24.59;40.37;93986.09;5126392;28;20019;-92
2022/07/07 10:44:20;;;;;;;4.57;2.00;;;;;;;24.76;39.91;93978.97;5126162;28;20035;-92
2022/07/07 10:47:12;;;;;;;2.70;1.73;;;;;;;24.99;39.61;93990.09;5126152;28;20029;-92
2022/07/07 10:49:44;;;;;;;2.65;1.40;;;;;;;24.84;39.63;93980.47;5110410;28;20036;-92
2022/07/07 10:52:38;;;;;;;3.05;1.50;;;;;;;24.83;39.45;93976.16;5126618;28;20028;-93
2022/07/07 10:55:04;;;;;;;2.72;1.70;;;;;;;24.75;40.92;93974.69;5126356;28;20027;-93
2022/07/07 10:57:41;;;;;;;3.30;1.38;;;;;;;24.76;42.18;93974.28;5126080;28;20024;-92
2022/07/07 11:00:26;;;;;;;3.17;1.55;;;;;;;24.79;40.75;93987.13;5126280;28;20027;-92
2022/07/07 11:03:08;;;;;;;2.60;1.33;;;;;;;24.79;40.51;93984.41;5126212;28;20083;-93
2022/07/07 11:05:34;;;;;;;2.88;1.60;;;;;;;24.87;39.99;93970.69;5142184;27;20221;-94
2022/07/07 11:07:59;;;;;;;5.63;1.67;;;;;;;25.07;39.61;93977.16;5126275;28;20035;-93
2022/07/07 11:10:37;;;;;;;5.60;1.48;;;;;;;25.28;40.08;93970.78;5125925;28;20027;-93
2022/07/07 11:13:30;;;;;;;4.70;1.70;;;;;;;25.41;40.32;93963.63;5125616;28;20326;-94
2022/07/07 11:16:12;;;;;;;3.42;1.70;;;;;;;25.52;39.27;93962.72;5125796;28;20218;-94
2022/07/07 11:18:38;;;;;;;;;;;;;;;25.39;40.89;93960.50;5126392;28;20027;-92
2022/07/07 11:21:05;;;;;;;3.53;1.80;;;;;;;25.35;41.38;93954.31;5125759;28;19974;-93
2022/07/07 11:23:51;;;;;;;2.92;1.55;;;;;;;25.41;38.86;93958.16;5107603;28;20031;-93
2022/07/07 11:26:23;;;;;;;5.85;1.75;;;;;;;25.50;38.57;93954.94;5126101;28;20035;-93
2022/07/07 11:28:54;;;;;;;4.60;1.38;;;;;;;25.52;40.34;93932.72;5107358;28;20028;-93
2022/07/07 11:31:20;;;;;;;8.52;1.60;;;;;;;25.65;39.21;93941.16;5125650;28;20019;-94
2022/07/07 11:33:53;;;;;;;3.75;1.50;;;;;;;25.83;38.80;93949.91;5125668;28;20023;-94
2022/07/07 11:36:24;;;;;;;3.25;1.77;;;;;;;25.61;38.02;93941.19;5125344;28;20023;-93